Time;durP1;ratioP1;P1;durP2;ratioP2;P2;SDS_P1;SDS_P2;PMS_P1;PMS_P2;Temp;Humidity;BMP_temperature;BMP_pressure;BME280_temperature;BME280_humidity;BME280_pressure;Samples;Min_cycle;Max_cycle;Signal;HPM_P1;HPM_P2
2024/01/31 00:01:21;;;;;;;15.13;9.02;;;9.20;99.90;;;;;;5141118;27;20350;-58
2024/01/31 00:03:47;;;;;;;16.00;9.32;;;9.20;99.90;;;;;;5140886;27;20122;-58
2024/01/31 00:06:13;;;;;;;14.63;8.32;;;9.40;99.90;;;;;;5141176;27;20337;-60
2024/01/31 00:08:39;;;;;;;18.08;9.02;;;9.40;99.90;;;;;;5140856;27;20038;-59
2024/01/31 00:11:08;;;;;;;16.13;8.93;;;9.30;99.90;;;;;;5140847;27;20097;-59
2024/01/31 00:13:34;;;;;;;16.23;8.60;;;9.30;99.90;;;;;;5140730;27;20035;-59
2024/01/31 00:16:01;;;;;;;14.25;8.85;;;9.20;99.90;;;;;;5122656;27;20027;-59
2024/01/31 00:18:27;;;;;;;17.85;8.88;;;9.20;99.90;;;;;;5122887;27;20413;-60
2024/01/31 00:20:52;;;;;;;18.77;9.15;;;9.30;99.90;;;;;;5140633;27;20028;-59
2024/01/31 00:23:19;;;;;;;16.88;9.27;;;9.30;99.90;;;;;;5140507;27;20023;-59
2024/01/31 00:25:46;;;;;;;16.73;8.63;;;9.30;99.90;;;;;;5122561;27;20039;-59
2024/01/31 00:28:12;;;;;;;17.15;8.77;;;9.30;99.90;;;;;;5122707;27;20037;-59
2024/01/31 00:30:38;;;;;;;15.00;7.78;;;9.30;99.90;;;;;;5140387;27;20039;-59
2024/01/31 00:33:04;;;;;;;17.63;8.55;;;9.30;99.90;;;;;;5122481;27;20039;-59
2024/01/31 00:35:30;;;;;;;17.17;9.07;;;9.30;99.90;;;;;;5139677;27;20267;-58
2024/01/31 00:37:56;;;;;;;19.08;8.88;;;9.30;99.90;;;;;;5140341;27;20047;-59
2024/01/31 00:40:22;;;;;;;17.30;9.52;;;9.40;99.90;;;;;;5140348;27;20390;-58
2024/01/31 00:42:48;;;;;;;16.00;8.57;;;9.40;99.90;;;;;;5140041;27;20035;-59
2024/01/31 00:45:14;;;;;;;16.00;7.40;;;9.40;99.90;;;;;;5105201;27;20037;-58
2024/01/31 00:47:40;;;;;;;10.07;4.55;;;9.40;99.90;;;;;;5140053;27;20038;-59
2024/01/31 00:50:07;;;;;;;9.40;4.20;;;9.40;99.90;;;;;;5140239;27;20450;-59
2024/01/31 00:52:33;;;;;;;8.60;3.75;;;9.40;99.90;;;;;;5121953;27;20031;-58
2024/01/31 00:54:58;;;;;;;9.13;3.97;;;9.40;99.90;;;;;;5121881;27;20310;-59
2024/01/31 00:57:24;;;;;;;8.82;3.35;;;9.40;99.90;;;;;;5139832;27;20482;-61
2024/01/31 00:59:50;;;;;;;7.53;2.97;;;9.40;99.90;;;;;;5140118;27;20287;-60
2024/01/31 01:02:16;;;;;;;6.97;3.10;;;9.30;99.90;;;;;;5139730;27;20020;-60
2024/01/31 01:04:43;;;;;;;4.82;2.53;;;9.30;99.90;;;;;;5139790;27;20023;-60
2024/01/31 01:07:08;;;;;;;6.13;2.25;;;9.30;99.90;;;;;;5139918;27;20394;-59
2024/01/31 01:09:35;;;;;;;8.05;2.65;;;9.30;99.90;;;;;;5139592;27;20028;-58
2024/01/31 01:12:01;;;;;;;6.40;2.53;;;9.30;98.70;;;;;;5139634;27;20031;-61
2024/01/31 01:14:27;;;;;;;6.47;2.67;;;9.30;96.00;;;;;;5139549;27;20045;-59
2024/01/31 01:16:53;;;;;;;7.55;2.47;;;9.40;92.40;;;;;;5139603;27;20035;-59
2024/01/31 01:19:19;;;;;;;4.72;2.28;;;9.30;86.30;;;;;;5139563;27;20027;-60
2024/01/31 01:21:45;;;;;;;4.57;2.35;;;9.30;80.60;;;;;;5139309;27;20042;-59
2024/01/31 01:24:10;;;;;;;8.02;2.45;;;9.30;78.60;;;;;;5139346;27;20413;-60
2024/01/31 01:26:40;;;;;;;8.10;2.13;;;9.30;79.20;;;;;;5139390;27;20285;-58
2024/01/31 01:29:08;;;;;;;7.80;2.22;;;9.40;70.50;;;;;;5121311;27;20092;-58
2024/01/31 01:31:34;;;;;;;6.63;2.00;;;9.40;59.90;;;;;;5121596;27;20037;-59
2024/01/31 01:33:59;;;;;;;3.97;1.88;;;9.30;56.00;;;;;;5139097;27;20118;-58
2024/01/31 01:36:26;;;;;;;6.45;2.05;;;9.30;54.60;;;;;;5138947;27;20054;-58
2024/01/31 01:38:52;;;;;;;3.90;1.63;;;9.30;53.60;;;;;;5138888;27;20102;-59
2024/01/31 01:41:18;;;;;;;7.20;2.00;;;9.30;53.40;;;;;;5139012;27;20386;-58
2024/01/31 01:43:43;;;;;;;6.57;1.63;;;9.30;52.30;;;;;;5121051;27;20176;-58
2024/01/31 01:46:13;;;;;;;5.60;1.38;;;9.30;51.10;;;;;;5138933;27;20416;-59
2024/01/31 01:48:39;;;;;;;3.10;1.10;;;9.30;49.20;;;;;;5138850;27;20035;-59
2024/01/31 01:51:06;;;;;;;5.15;1.40;;;9.20;51.10;;;;;;5139153;27;20091;-58
2024/01/31 01:53:36;;;;;;;4.40;1.20;;;9.20;46.70;;;;;;5120943;27;20057;-59
2024/01/31 01:56:07;;;;;;;5.55;1.20;;;9.20;42.80;;;;;;5104349;27;20039;-60
2024/01/31 01:58:35;;;;;;;5.40;1.30;;;9.20;47.10;;;;;;5120945;27;20035;-59
2024/01/31 02:01:01;;;;;;;5.90;1.40;;;9.10;53.00;;;;;;5138818;27;20031;-59
2024/01/31 02:03:30;;;;;;;7.45;1.30;;;9.00;67.80;;;;;;5121216;27;20282;-60
2024/01/31 02:06:00;;;;;;;5.63;0.95;;;9.00;64.50;;;;;;5138682;27;20041;-59
2024/01/31 02:08:31;;;;;;;8.15;1.40;;;9.00;67.40;;;;;;5138517;27;20054;-60
2024/01/31 02:10:57;;;;;;;5.60;1.08;;;8.90;79.30;;;;;;5138679;27;20336;-60
2024/01/31 02:13:23;;;;;;;6.07;1.30;;;9.00;80.40;;;;;;5138378;27;20027;-59
2024/01/31 02:15:57;;;;;;;3.58;1.10;;;8.90;86.60;;;;;;5138345;27;20070;-60
2024/01/31 02:18:26;;;;;;;5.82;1.02;;;8.80;97.10;;;;;;5120474;27;20019;-59
2024/01/31 02:20:52;;;;;;;5.88;1.08;;;8.80;98.90;;;;;;5104021;27;20042;-58
2024/01/31 02:23:18;;;;;;;8.77;1.38;;;8.80;97.70;;;;;;5138234;27;20031;-60
2024/01/31 02:25:47;;;;;;;8.10;1.35;;;8.90;95.30;;;;;;5138259;27;20340;-58
2024/01/31 02:28:13;;;;;;;5.63;1.50;;;8.90;93.20;;;;;;5103409;27;20276;-59
2024/01/31 02:30:39;;;;;;;8.32;1.80;;;8.90;94.20;;;;;;5138197;27;20034;-58
2024/01/31 02:33:05;;;;;;;7.25;2.28;;;8.80;94.50;;;;;;5120343;27;20099;-58
2024/01/31 02:35:33;;;;;;;4.53;1.73;;;8.80;99.90;;;;;;5120102;27;20267;-60
2024/01/31 02:38:00;;;;;;;5.00;1.48;;;8.80;99.90;;;;;;5137902;27;20054;-59
2024/01/31 02:40:26;;;;;;;8.63;1.75;;;8.80;99.90;;;;;;5120259;27;20116;-59
2024/01/31 02:42:53;;;;;;;2.72;1.35;;;8.80;99.90;;;;;;5138021;27;20027;-59
2024/01/31 02:45:19;;;;;;;4.57;1.40;;;8.80;99.90;;;;;;5137967;27;20046;-58
2024/01/31 02:47:45;;;;;;;4.93;1.42;;;8.70;99.90;;;;;;5138000;27;20039;-59
2024/01/31 02:50:11;;;;;;;5.05;1.40;;;8.70;99.90;;;;;;5103240;28;20031;-60
2024/01/31 02:52:37;;;;;;;4.95;2.00;;;8.70;99.90;;;;;;5137911;27;20084;-59
2024/01/31 02:55:04;;;;;;;4.90;1.17;;;8.70;99.90;;;;;;5137861;27;20469;-59
2024/01/31 02:57:30;;;;;;;7.22;1.45;;;8.80;99.90;;;;;;5138090;28;20054;-60
2024/01/31 02:59:55;;;;;;;4.82;1.30;;;8.80;99.90;;;;;;5137381;27;20027;-59
2024/01/31 03:02:21;;;;;;;4.38;1.48;;;8.80;99.90;;;;;;5119916;28;20386;-60
2024/01/31 03:04:47;;;;;;;5.15;1.58;;;8.70;99.90;;;;;;5120086;28;20097;-59
2024/01/31 03:07:13;;;;;;;7.28;1.50;;;8.60;99.90;;;;;;5137802;28;20087;-59
2024/01/31 03:09:39;;;;;;;5.47;1.95;;;8.50;99.90;;;;;;5137817;28;20298;-59
2024/01/31 03:12:08;;;;;;;12.27;5.82;;;8.40;99.90;;;;;;5119735;28;20343;-59
2024/01/31 03:14:34;;;;;;;11.73;5.38;;;8.30;99.90;;;;;;5103005;28;20039;-60
2024/01/31 03:17:00;;;;;;;18.13;9.55;;;8.30;99.90;;;;;;5119881;28;20030;-60
2024/01/31 03:19:30;;;;;;;21.98;10.65;;;8.30;99.90;;;;;;5137657;28;20024;-60
2024/01/31 03:21:56;;;;;;;25.77;10.20;;;8.10;99.90;;;;;;5103171;28;20356;-60
2024/01/31 03:24:22;;;;;;;21.40;10.85;;;7.90;99.90;;;;;;5119844;28;20047;-59
2024/01/31 03:26:48;;;;;;;23.48;10.68;;;8.00;99.90;;;;;;5137588;28;20119;-59
2024/01/31 03:29:14;;;;;;;19.25;11.27;;;8.10;99.90;;;;;;5137562;28;20047;-59
2024/01/31 03:31:40;;;;;;;28.08;12.25;;;8.30;99.90;;;;;;5137638;28;20065;-59
2024/01/31 03:34:06;;;;;;;20.65;11.70;;;8.30;99.90;;;;;;5119791;28;20430;-59
2024/01/31 03:36:33;;;;;;;24.90;12.60;;;8.30;99.90;;;;;;5137431;28;20027;-59
2024/01/31 03:39:00;;;;;;;21.38;12.35;;;8.20;99.90;;;;;;5137221;28;20051;-58
2024/01/31 03:41:27;;;;;;;21.77;12.27;;;8.10;99.90;;;;;;5119462;28;20019;-58
2024/01/31 03:43:54;;;;;;;25.30;12.52;;;8.00;99.90;;;;;;5137418;28;20027;-58
2024/01/31 03:46:20;;;;;;;25.08;13.15;;;8.00;99.90;;;;;;5137362;28;20453;-58
2024/01/31 03:48:46;;;;;;;27.48;12.52;;;7.90;99.90;;;;;;5102605;28;20302;-59
2024/01/31 03:51:22;;;;;;;25.20;13.10;;;7.70;99.90;;;;;;5137519;28;20114;-58
2024/01/31 03:53:49;;;;;;;21.00;12.40;;;7.80;99.90;;;;;;5137321;28;20039;-59
2024/01/31 03:56:16;;;;;;;22.23;12.40;;;7.90;99.90;;;;;;5137241;28;20039;-60
2024/01/31 03:58:42;;;;;;;26.42;13.73;;;8.00;99.90;;;;;;5137187;28;20055;-59
2024/01/31 04:01:08;;;;;;;24.42;13.27;;;8.10;99.90;;;;;;5119289;28;20038;-59
2024/01/31 04:03:38;;;;;;;22.20;13.65;;;8.10;99.90;;;;;;5119224;28;20127;-60
2024/01/31 04:06:05;;;;;;;22.55;13.10;;;7.90;99.90;;;;;;5119219;28;20394;-59
2024/01/31 04:08:31;;;;;;;24.80;12.85;;;7.90;99.90;;;;;;5137114;28;20046;-60
2024/01/31 04:10:57;;;;;;;25.35;13.35;;;7.90;99.90;;;;;;5120633;27;20031;-59
2024/01/31 04:13:23;;;;;;;24.85;13.00;;;7.80;99.90;;;;;;5140749;27;20399;-58
2024/01/31 04:15:49;;;;;;;24.58;13.40;;;7.90;99.90;;;;;;5122976;27;20340;-59
2024/01/31 04:18:15;;;;;;;22.67;13.25;;;7.90;99.90;;;;;;5122871;27;20080;-58
2024/01/31 04:20:41;;;;;;;24.48;12.07;;;8.10;99.90;;;;;;5140671;27;20023;-58
2024/01/31 04:23:07;;;;;;;23.45;13.32;;;8.20;99.90;;;;;;5140474;27;20023;-59
2024/01/31 04:25:34;;;;;;;22.42;13.35;;;8.20;99.90;;;;;;5122706;27;20031;-59
2024/01/31 04:28:00;;;;;;;26.85;14.63;;;8.20;99.90;;;;;;5122868;27;20031;-59
2024/01/31 04:30:26;;;;;;;25.23;13.98;;;8.20;99.90;;;;;;5122476;27;20115;-59
2024/01/31 04:32:52;;;;;;;22.17;13.27;;;8.10;99.90;;;;;;5122301;27;20390;-60
2024/01/31 04:35:18;;;;;;;26.15;13.55;;;8.00;99.90;;;;;;5140156;27;20146;-59
2024/01/31 04:37:44;;;;;;;29.42;14.82;;;8.10;99.90;;;;;;5105076;27;20031;-60
2024/01/31 04:40:10;;;;;;;29.02;14.68;;;8.20;99.90;;;;;;5140404;27;20110;-58
2024/01/31 04:42:37;;;;;;;27.00;14.85;;;8.20;99.90;;;;;;5140105;27;20100;-59
2024/01/31 04:45:03;;;;;;;25.65;14.77;;;8.00;99.90;;;;;;5140194;27;20279;-59
2024/01/31 04:47:29;;;;;;;30.05;14.02;;;8.10;99.90;;;;;;5140121;27;20365;-59
2024/01/31 04:49:56;;;;;;;22.73;13.80;;;8.10;99.90;;;;;;5140224;27;20031;-58
2024/01/31 04:52:22;;;;;;;24.98;13.93;;;8.20;99.90;;;;;;5122279;27;20087;-59
2024/01/31 04:54:50;;;;;;;25.17;14.23;;;8.30;99.90;;;;;;5139920;27;20046;-59
2024/01/31 04:57:19;;;;;;;28.75;14.95;;;8.30;99.90;;;;;;5139941;27;20164;-58
2024/01/31 04:59:45;;;;;;;27.35;13.98;;;8.20;99.90;;;;;;5139902;27;20039;-60
2024/01/31 05:02:11;;;;;;;27.88;13.15;;;8.10;99.90;;;;;;5139933;27;20450;-59
2024/01/31 05:04:37;;;;;;;28.05;14.70;;;7.90;99.90;;;;;;5122038;27;20038;-58
2024/01/31 05:07:03;;;;;;;24.00;13.07;;;7.90;99.90;;;;;;5139754;27;20111;-59
2024/01/31 05:09:29;;;;;;;23.58;13.82;;;8.10;99.90;;;;;;5139642;27;20098;-59
2024/01/31 05:11:55;;;;;;;26.52;13.38;;;7.90;99.90;;;;;;5139634;27;20027;-58
2024/01/31 05:14:21;;;;;;;24.73;13.40;;;8.00;99.90;;;;;;5139502;27;20031;-60
2024/01/31 05:16:48;;;;;;;24.27;13.57;;;8.00;99.90;;;;;;5139497;27;20035;-59
2024/01/31 05:19:14;;;;;;;25.45;13.50;;;7.90;99.90;;;;;;5139499;27;20389;-59
2024/01/31 05:21:50;;;;;;;24.85;13.20;;;8.00;99.90;;;;;;5139165;27;20041;-59
2024/01/31 05:24:17;;;;;;;22.17;12.95;;;8.00;99.90;;;;;;5139363;27;20397;-59
2024/01/31 05:26:45;;;;;;;26.10;13.57;;;7.90;99.90;;;;;;5139632;27;20414;-59
2024/01/31 05:29:12;;;;;;;26.15;14.38;;;7.80;99.90;;;;;;5139169;27;20390;-60
2024/01/31 05:31:37;;;;;;;22.63;13.50;;;7.70;99.90;;;;;;5139224;27;20035;-59
2024/01/31 05:34:03;;;;;;;23.85;13.05;;;7.70;99.90;;;;;;5139232;27;20355;-59
2024/01/31 05:36:29;;;;;;;24.40;12.70;;;7.70;99.90;;;;;;5139236;27;20177;-61
2024/01/31 05:38:55;;;;;;;25.60;12.60;;;7.80;99.90;;;;;;5138967;27;20082;-60
2024/01/31 05:41:21;;;;;;;23.40;12.48;;;7.80;99.90;;;;;;5121330;27;20046;-59
2024/01/31 05:43:47;;;;;;;23.85;12.25;;;7.90;99.90;;;;;;5139006;27;20027;-58
2024/01/31 05:46:15;;;;;;;25.33;12.20;;;7.90;99.90;;;;;;5138973;27;20031;-59
2024/01/31 05:48:42;;;;;;;26.90;11.80;;;7.80;99.90;;;;;;5138888;27;20034;-64
2024/01/31 05:51:08;;;;;;;22.77;11.57;;;7.80;99.90;;;;;;5138984;27;20046;-59
2024/01/31 05:53:35;;;;;;;22.27;11.80;;;7.70;99.90;;;;;;5138831;27;20031;-59
2024/01/31 05:56:01;;;;;;;22.55;11.23;;;7.70;99.90;;;;;;5138632;27;20027;-60
2024/01/31 05:58:27;;;;;;;24.60;12.15;;;7.70;99.90;;;;;;5138641;27;20114;-59
2024/01/31 06:00:53;;;;;;;23.30;11.10;;;7.70;99.90;;;;;;5138599;27;20039;-59
2024/01/31 06:03:19;;;;;;;23.48;11.68;;;7.90;99.90;;;;;;5138692;27;20344;-62
2024/01/31 06:05:44;;;;;;;21.95;11.80;;;8.10;99.90;;;;;;5138515;27;20275;-60
2024/01/31 06:08:10;;;;;;;22.58;12.05;;;8.20;99.90;;;;;;5138481;27;20039;-59
2024/01/31 06:10:36;;;;;;;23.27;11.73;;;8.10;99.90;;;;;;5138409;27;20366;-59
2024/01/31 06:13:02;;;;;;;23.90;11.93;;;8.00;99.90;;;;;;5138465;27;20039;-60
2024/01/31 06:15:28;;;;;;;22.98;12.77;;;8.00;99.90;;;;;;5138335;27;20019;-58
2024/01/31 06:17:54;;;;;;;27.85;13.65;;;8.10;99.90;;;;;;5138353;27;20279;-58
2024/01/31 06:20:20;;;;;;;30.60;13.63;;;7.80;99.90;;;;;;5120449;27;20107;-60
2024/01/31 06:22:46;;;;;;;30.80;14.70;;;7.70;99.90;;;;;;5120374;27;20030;-59
2024/01/31 06:25:11;;;;;;;29.38;14.20;;;7.60;99.90;;;;;;5138350;27;20031;-61
2024/01/31 06:27:37;;;;;;;30.30;16.17;;;7.50;99.90;;;;;;5103079;27;20043;-59
2024/01/31 06:30:04;;;;;;;35.65;16.30;;;7.50;99.90;;;;;;5138112;27;20085;-59
2024/01/31 06:32:35;;;;;;;33.30;16.00;;;7.50;99.90;;;;;;5137760;27;20031;-60
2024/01/31 06:35:02;;;;;;;38.45;17.55;;;7.50;99.90;;;;;;5120386;27;20036;-59
2024/01/31 06:37:28;;;;;;;42.17;18.20;;;7.40;99.90;;;;;;5138001;27;20067;-59
2024/01/31 06:39:54;;;;;;;41.65;17.77;;;7.30;99.90;;;;;;5137857;27;20047;-59
2024/01/31 06:42:20;;;;;;;41.45;19.83;;;7.30;99.90;;;;;;5138005;27;20377;-59
2024/01/31 06:44:46;;;;;;;42.95;18.23;;;7.30;99.90;;;;;;5137886;27;20023;-60
2024/01/31 06:47:12;;;;;;;43.55;18.73;;;7.30;99.90;;;;;;5137776;27;20037;-60
2024/01/31 06:49:38;;;;;;;47.10;19.33;;;7.30;99.90;;;;;;5137783;27;20027;-59
2024/01/31 06:52:06;;;;;;;49.95;18.17;;;7.40;99.90;;;;;;5137809;27;20111;-59
2024/01/31 06:54:32;;;;;;;44.78;18.25;;;7.40;99.90;;;;;;5137557;27;20030;-60
2024/01/31 06:56:58;;;;;;;47.67;19.10;;;7.50;99.90;;;;;;5137796;27;20046;-60
2024/01/31 06:59:23;;;;;;;46.00;19.10;;;7.50;99.90;;;;;;5137676;28;20111;-61
2024/01/31 07:01:49;;;;;;;40.15;16.73;;;7.50;99.90;;;;;;5137874;28;20304;-58
2024/01/31 07:04:15;;;;;;;44.42;18.65;;;7.70;99.90;;;;;;5137684;28;20080;-60
2024/01/31 07:06:41;;;;;;;50.65;20.02;;;7.60;99.90;;;;;;5137662;28;20027;-60
2024/01/31 07:09:07;;;;;;;49.20;18.52;;;7.60;99.90;;;;;;5137676;28;20027;-59
2024/01/31 07:11:33;;;;;;;46.63;19.55;;;7.70;99.90;;;;;;5137769;28;20353;-60
2024/01/31 07:13:59;;;;;;;48.08;19.65;;;7.80;99.90;;;;;;5119716;28;20115;-60
2024/01/31 07:16:24;;;;;;;44.53;18.98;;;7.90;99.90;;;;;;5137681;28;20028;-59
2024/01/31 07:18:50;;;;;;;43.53;19.23;;;7.80;99.90;;;;;;5137633;28;20038;-60
2024/01/31 07:21:24;;;;;;;44.78;17.63;;;7.80;99.90;;;;;;5119934;28;20302;-60
2024/01/31 07:23:51;;;;;;;39.65;18.45;;;7.90;99.90;;;;;;5119854;28;20126;-60
2024/01/31 07:26:22;;;;;;;40.47;17.83;;;7.90;99.90;;;;;;5137630;28;20091;-58
2024/01/31 07:28:47;;;;;;;41.83;19.27;;;7.90;99.90;;;;;;5137553;28;20050;-60
2024/01/31 07:31:13;;;;;;;45.90;19.80;;;7.80;99.90;;;;;;5137535;28;20386;-60
2024/01/31 07:33:39;;;;;;;37.78;17.92;;;7.90;99.90;;;;;;5137477;28;20027;-59
2024/01/31 07:36:06;;;;;;;41.28;18.75;;;7.90;99.90;;;;;;5137769;28;20103;-60
2024/01/31 07:38:32;;;;;;;37.00;17.80;;;7.80;99.90;;;;;;5137139;28;20092;-59
2024/01/31 07:40:57;;;;;;;36.17;17.40;;;7.70;99.90;;;;;;5137329;28;20390;-59
2024/01/31 07:43:24;;;;;;;34.00;17.38;;;7.70;99.90;;;;;;5137201;28;20051;-59
2024/01/31 07:45:49;;;;;;;38.47;19.15;;;7.60;99.90;;;;;;5122001;27;20027;-60
2024/01/31 07:48:15;;;;;;;39.00;17.63;;;7.40;99.90;;;;;;5141317;27;20037;-59
2024/01/31 07:50:41;;;;;;;41.45;17.75;;;7.40;99.90;;;;;;5123281;27;20310;-59
2024/01/31 07:53:07;;;;;;;40.72;18.10;;;7.50;99.90;;;;;;5123248;27;20144;-58
2024/01/31 07:55:34;;;;;;;43.20;18.38;;;7.50;99.90;;;;;;5140920;27;20046;-58
2024/01/31 07:58:00;;;;;;;34.97;16.20;;;7.60;99.90;;;;;;5140852;27;20027;-58
2024/01/31 08:00:27;;;;;;;36.58;17.70;;;7.90;99.90;;;;;;5140830;27;20027;-59
2024/01/31 08:02:53;;;;;;;38.97;19.30;;;8.20;99.90;;;;;;5140914;27;20034;-59
2024/01/31 08:05:18;;;;;;;34.35;17.38;;;8.50;99.90;;;;;;5141072;27;20122;-59
2024/01/31 08:07:47;;;;;;;32.97;18.10;;;9.10;99.90;;;;;;5106180;27;20318;-58
2024/01/31 08:10:13;;;;;;;38.67;18.08;;;9.20;99.90;;;;;;5140928;27;20027;-60
2024/01/31 08:12:43;;;;;;;37.90;18.52;;;9.10;99.90;;;;;;5140850;27;20038;-59
2024/01/31 08:15:09;;;;;;;35.03;18.45;;;8.60;99.90;;;;;;5122800;27;20155;-59
2024/01/31 08:17:34;;;;;;;31.67;17.35;;;8.30;99.90;;;;;;5122905;27;20042;-59
2024/01/31 08:20:00;;;;;;;38.38;16.83;;;8.10;99.90;;;;;;5122929;27;20418;-60
2024/01/31 08:22:26;;;;;;;37.33;18.58;;;7.90;99.90;;;;;;5122942;27;20118;-59
2024/01/31 08:24:52;;;;;;;33.72;17.58;;;7.80;99.90;;;;;;5140631;27;20020;-59
2024/01/31 08:27:18;;;;;;;41.67;17.98;;;7.80;99.90;;;;;;5140654;27;20451;-59
2024/01/31 08:29:45;;;;;;;35.40;18.00;;;7.70;99.90;;;;;;5140615;27;20029;-59
2024/01/31 08:32:11;;;;;;;32.22;17.60;;;7.70;99.90;;;;;;5140438;27;20076;-59
2024/01/31 08:34:37;;;;;;;33.30;18.05;;;7.70;99.90;;;;;;5140325;27;20111;-59
2024/01/31 08:37:03;;;;;;;38.30;18.70;;;7.90;99.90;;;;;;5122626;27;20019;-58
2024/01/31 08:39:31;;;;;;;34.58;18.63;;;8.00;99.90;;;;;;5140229;27;20146;-59
2024/01/31 08:41:59;;;;;;;37.60;18.58;;;8.00;99.90;;;;;;5140088;27;20298;-59
2024/01/31 08:44:24;;;;;;;37.80;19.77;;;7.90;99.90;;;;;;5140242;27;20031;-59
2024/01/31 08:46:52;;;;;;;32.55;18.60;;;8.00;99.90;;;;;;5140180;27;20045;-58
2024/01/31 08:49:18;;;;;;;38.67;17.98;;;8.00;99.90;;;;;;5140340;27;20054;-59
2024/01/31 08:51:43;;;;;;;34.92;18.65;;;7.90;99.90;;;;;;5140130;27;20058;-59
2024/01/31 08:54:09;;;;;;;38.50;18.38;;;7.80;99.90;;;;;;5139911;27;20031;-59
2024/01/31 08:56:36;;;;;;;35.58;18.15;;;7.80;99.90;;;;;;5121773;27;20315;-59
2024/01/31 08:59:02;;;;;;;34.60;18.33;;;7.80;99.90;;;;;;5139845;27;20040;-59
2024/01/31 09:01:27;;;;;;;33.83;17.80;;;7.80;99.90;;;;;;5139923;27;20024;-59
2024/01/31 09:03:55;;;;;;;34.05;18.02;;;7.80;99.90;;;;;;5139850;27;20023;-59
2024/01/31 09:06:22;;;;;;;32.67;17.38;;;7.80;99.90;;;;;;5139877;27;20031;-58
2024/01/31 09:08:49;;;;;;;30.40;16.83;;;7.80;99.90;;;;;;5122050;27;20070;-59
2024/01/31 09:11:15;;;;;;;29.08;16.58;;;7.90;99.90;;;;;;5122128;27;20032;-59
2024/01/31 09:13:41;;;;;;;31.75;17.08;;;7.80;99.90;;;;;;5139615;27;20023;-59
2024/01/31 09:16:08;;;;;;;29.67;16.42;;;7.80;99.90;;;;;;5139617;27;20063;-60
2024/01/31 09:18:34;;;;;;;33.08;16.63;;;7.80;99.90;;;;;;5139576;27;20031;-59
2024/01/31 09:21:00;;;;;;;25.27;15.02;;;7.90;99.90;;;;;;5121616;27;20306;-59
2024/01/31 09:23:26;;;;;;;24.42;14.77;;;7.90;99.90;;;;;;5139560;27;20023;-59
2024/01/31 09:25:52;;;;;;;25.73;13.77;;;8.00;99.90;;;;;;5139439;27;20042;-59
2024/01/31 09:28:19;;;;;;;27.80;14.20;;;8.10;99.90;;;;;;5104823;27;20046;-59
2024/01/31 09:30:44;;;;;;;24.27;13.43;;;8.00;99.90;;;;;;5139355;27;20122;-58
2024/01/31 09:33:10;;;;;;;24.75;13.68;;;8.00;99.90;;;;;;5139428;27;20054;-58
2024/01/31 09:35:36;;;;;;;27.35;13.20;;;7.90;99.90;;;;;;5139252;27;20065;-58
2024/01/31 09:38:02;;;;;;;18.42;11.65;;;8.00;99.90;;;;;;5139062;27;20363;-59
2024/01/31 09:40:29;;;;;;;19.77;11.32;;;7.90;99.90;;;;;;5121415;27;20353;-61
2024/01/31 09:42:55;;;;;;;20.35;11.35;;;7.90;99.90;;;;;;5139090;27;20079;-58
2024/01/31 09:45:22;;;;;;;18.45;10.73;;;7.90;99.90;;;;;;5139150;27;20053;-58
2024/01/31 09:47:49;;;;;;;16.40;10.23;;;8.00;99.90;;;;;;5121195;27;20027;-58
2024/01/31 09:50:18;;;;;;;16.23;10.45;;;8.20;99.90;;;;;;5138939;27;20019;-58
2024/01/31 09:52:47;;;;;;;15.55;9.63;;;8.20;99.90;;;;;;5139082;27;20390;-58
2024/01/31 09:55:13;;;;;;;16.10;9.90;;;8.00;99.90;;;;;;5138793;27;20397;-59
2024/01/31 09:57:41;;;;;;;16.92;10.23;;;8.00;99.90;;;;;;5138710;27;20054;-59
2024/01/31 10:00:08;;;;;;;14.68;8.93;;;8.00;99.90;;;;;;5121285;27;20449;-58
2024/01/31 10:02:42;;;;;;;14.25;8.45;;;8.10;99.90;;;;;;5105766;27;20042;-59
2024/01/31 10:05:07;;;;;;;12.73;8.60;;;8.20;99.90;;;;;;5138974;27;20035;-60
2024/01/31 10:07:38;;;;;;;14.60;8.35;;;8.30;99.90;;;;;;5120591;27;20480;-59
2024/01/31 10:10:04;;;;;;;9.90;7.50;;;8.10;99.90;;;;;;5138073;27;20035;-59
2024/01/31 10:12:30;;;;;;;10.55;7.80;;;8.20;99.90;;;;;;5138593;27;20280;-60
2024/01/31 10:14:56;;;;;;;13.50;7.53;;;8.30;99.90;;;;;;5138613;27;20191;-61
2024/01/31 10:17:23;;;;;;;10.43;7.05;;;8.40;99.90;;;;;;5138411;27;20020;-59
2024/01/31 10:19:50;;;;;;;13.75;7.07;;;8.30;99.90;;;;;;5120661;27;20308;-57
2024/01/31 10:22:19;;;;;;;11.48;6.90;;;8.40;99.90;;;;;;5138355;27;20084;-59
2024/01/31 10:24:51;;;;;;;8.25;6.18;;;8.50;99.90;;;;;;5138350;27;20320;-58
2024/01/31 10:27:21;;;;;;;10.77;5.45;;;8.60;99.90;;;;;;5120408;27;20027;-59
2024/01/31 10:29:48;;;;;;;9.05;5.47;;;8.80;99.90;;;;;;5138260;27;20023;-59
2024/01/31 10:32:17;;;;;;;8.00;5.10;;;8.80;99.90;;;;;;5103669;27;20020;-59
2024/01/31 10:34:44;;;;;;;7.38;5.50;;;8.80;97.20;;;;;;5138315;27;20371;-59
2024/01/31 10:37:10;;;;;;;7.78;5.22;;;8.60;99.30;;;;;;5120561;27;20388;-59
2024/01/31 10:39:39;;;;;;;6.95;4.97;;;8.40;99.90;;;;;;5137843;27;20127;-60
2024/01/31 10:42:06;;;;;;;7.28;4.38;;;8.40;99.90;;;;;;5138061;27;20077;-61
2024/01/31 10:44:37;;;;;;;6.13;3.00;;;8.40;96.20;;;;;;5120193;27;20031;-60
2024/01/31 10:47:04;;;;;;;4.85;2.50;;;8.20;80.50;;;;;;5120448;27;20106;-59
2024/01/31 10:49:30;;;;;;;3.33;2.33;;;8.10;59.10;;;;;;5120314;27;20065;-61
2024/01/31 10:51:58;;;;;;;4.32;2.60;;;8.30;70.70;;;;;;5120260;28;20027;-61
2024/01/31 10:54:31;;;;;;;3.83;2.45;;;8.60;65.40;;;;;;5138029;27;20359;-62
2024/01/31 10:56:59;;;;;;;3.80;2.28;;;9.10;1.00;;;;;;5103425;28;20027;-60
2024/01/31 10:59:25;;;;;;;7.13;2.50;;;9.60;1.00;;;;;;5120129;28;20524;-60
2024/01/31 11:01:54;;;;;;;3.60;2.30;;;9.90;1.00;;;;;;5119937;28;20035;-61
2024/01/31 11:04:21;;;;;;;4.95;2.10;;;10.10;1.00;;;;;;5120322;28;20107;-59
2024/01/31 11:06:51;;;;;;;4.90;1.92;;;10.30;1.00;;;;;;5137888;28;20102;-60
2024/01/31 11:09:21;;;;;;;3.78;1.80;;;9.60;1.00;;;;;;5119951;28;20042;-62
2024/01/31 11:11:47;;;;;;;4.30;1.60;;;9.60;1.00;;;;;;5138150;28;20035;-59
2024/01/31 11:14:14;;;;;;;2.97;1.33;;;9.30;1.00;;;;;;5103101;28;20031;-59
2024/01/31 11:16:41;;;;;;;4.50;1.35;;;9.20;1.00;;;;;;5137641;28;20031;-61
2024/01/31 11:19:09;;;;;;;3.13;1.33;;;9.10;1.00;;;;;;5137608;27;20027;-60
2024/01/31 11:21:39;;;;;;;3.58;1.20;;;9.20;1.00;;;;;;5141919;27;20050;-60
2024/01/31 11:24:06;;;;;;;2.50;1.10;;;9.30;1.00;;;;;;5123921;27;20331;-60
2024/01/31 11:26:35;;;;;;;1.50;1.10;;;9.30;1.00;;;;;;5107048;27;20039;-60
2024/01/31 11:29:03;;;;;;;3.10;1.10;;;9.10;1.00;;;;;;5141836;27;20055;-60
2024/01/31 11:31:29;;;;;;;1.50;0.82;;;9.10;1.00;;;;;;5123986;27;20039;-58
2024/01/31 11:33:57;;;;;;;3.75;1.05;;;9.10;1.00;;;;;;5123857;27;20386;-60
2024/01/31 11:36:23;;;;;;;4.35;1.33;;;9.20;1.00;;;;;;5123574;27;20027;-61
2024/01/31 11:38:50;;;;;;;4.30;1.00;;;9.30;1.00;;;;;;5141344;27;20127;-62
2024/01/31 11:41:16;;;;;;;1.90;1.27;;;9.10;1.00;;;;;;5123757;27;20111;-61
2024/01/31 11:43:42;;;;;;;2.47;0.82;;;9.00;1.00;;;;;;5141421;27;20068;-62
2024/01/31 11:46:08;;;;;;;3.38;1.30;;;8.90;1.00;;;;;;5123472;27;20035;-61
2024/01/31 11:48:35;;;;;;;4.15;1.25;;;9.10;1.00;;;;;;5141411;27;20035;-61
2024/01/31 11:51:01;;;;;;;3.97;1.25;;;9.20;1.00;;;;;;5141571;27;20038;-61
2024/01/31 11:53:27;;;;;;;2.13;1.10;;;9.30;1.00;;;;;;5141367;27;20035;-61
2024/01/31 11:55:52;;;;;;;3.55;1.17;;;9.20;1.00;;;;;;5141229;27;20035;-61
2024/01/31 11:58:18;;;;;;;4.07;1.05;;;9.30;1.00;;;;;;5123324;27;20027;-61
2024/01/31 12:00:44;;;;;;;2.60;1.00;;;9.40;1.00;;;;;;5123323;27;20319;-62
2024/01/31 12:03:11;;;;;;;3.00;1.05;;;9.40;99.90;;;;;;5106439;27;20019;-64
2024/01/31 12:05:37;;;;;;;3.40;1.23;;;9.20;99.90;;;;;;5123449;27;20275;-62
2024/01/31 12:08:04;;;;;;;3.90;1.45;;;9.20;1.00;;;;;;5106291;27;20035;-62
2024/01/31 12:10:30;;;;;;;2.70;1.05;;;9.10;1.00;;;;;;5123342;27;20026;-62
2024/01/31 12:13:00;;;;;;;1.52;0.95;;;9.20;1.00;;;;;;5140858;27;20038;-61
2024/01/31 12:15:29;;;;;;;5.55;1.17;;;9.30;1.00;;;;;;5123840;27;20454;-62
2024/01/31 12:17:55;;;;;;;3.15;1.20;;;9.40;99.90;;;;;;5140800;27;20042;-62
2024/01/31 12:20:21;;;;;;;4.65;1.10;;;9.30;1.00;;;;;;5140758;27;20313;-62
2024/01/31 12:22:47;;;;;;;4.43;1.20;;;9.20;1.00;;;;;;5122822;27;20055;-61
2024/01/31 12:25:13;;;;;;;2.60;1.08;;;9.10;1.00;;;;;;5123363;27;20397;-63
2024/01/31 12:27:39;;;;;;;3.70;1.00;;;9.10;99.90;;;;;;5105710;27;20049;-62
2024/01/31 12:30:05;;;;;;;5.82;1.20;;;9.00;1.00;;;;;;5140754;27;20353;-60
2024/01/31 12:32:31;;;;;;;2.35;1.10;;;9.10;99.90;;;;;;5139600;27;20031;-62
2024/01/31 12:34:57;;;;;;;1.90;0.98;;;9.20;99.90;;;;;;5123001;27;20110;-61
2024/01/31 12:37:23;;;;;;;5.25;1.30;;;9.50;99.90;;;;;;5122847;27;20110;-61
2024/01/31 12:39:50;;;;;;;3.28;1.10;;;9.50;51.30;;;;;;5140212;27;20043;-61
2024/01/31 12:42:16;;;;;;;2.47;0.80;;;9.20;99.90;;;;;;5140495;27;20059;-60